createdAt,value
2023-04-15T00:01:19.233Z,9.00
2023-04-15T00:03:53.911Z,9.00
2023-04-15T00:06:26.550Z,9.00
2023-04-15T00:08:59.727Z,9.00
2023-04-15T00:11:32.537Z,9.00
2023-04-15T00:14:06.283Z,9.00
2023-04-15T00:16:38.860Z,9.00
2023-04-15T00:19:12.321Z,9.10
2023-04-15T00:21:44.816Z,9.10
2023-04-15T00:24:17.764Z,9.20
2023-04-15T00:26:50.395Z,9.20
2023-04-15T00:29:23.183Z,9.20
2023-04-15T00:31:56.517Z,9.30
2023-04-15T00:34:29.539Z,9.20
2023-04-15T00:37:02.069Z,9.20
2023-04-15T00:39:35.206Z,9.20
2023-04-15T00:42:07.797Z,9.20
2023-04-15T00:44:41.072Z,9.20
2023-04-15T00:47:14.691Z,9.10
2023-04-15T00:49:47.994Z,9.10
2023-04-15T00:52:20.450Z,9.10
2023-04-15T00:54:53.716Z,9.10
2023-04-15T00:57:27.764Z,9.00
2023-04-15T01:00:01.241Z,9.00
2023-04-15T01:02:35.321Z,9.00
2023-04-15T01:05:09.529Z,9.00
2023-04-15T01:07:42.002Z,9.00
2023-04-15T01:10:15.241Z,8.90
2023-04-15T01:12:48.091Z,8.90
2023-04-15T01:15:21.413Z,8.90
2023-04-15T01:17:54.025Z,8.80
2023-04-15T01:20:27.616Z,8.80
2023-04-15T01:23:00.563Z,8.90
2023-04-15T01:25:34.888Z,8.80
2023-04-15T01:28:07.424Z,8.80
2023-04-15T01:30:40.563Z,8.80
2023-04-15T01:33:13.335Z,8.80
2023-04-15T01:35:46.507Z,8.80
2023-04-15T01:38:19.358Z,8.80
2023-04-15T01:40:52.145Z,8.80
2023-04-15T01:43:25.191Z,8.80
2023-04-15T01:45:57.907Z,8.70
2023-04-15T01:48:30.371Z,8.70
2023-04-15T01:51:03.303Z,8.70
2023-04-15T01:53:35.948Z,8.80
2023-04-15T01:56:09.165Z,8.70
2023-04-15T01:58:41.816Z,8.70
2023-04-15T02:01:15.219Z,8.80
2023-04-15T02:03:48.127Z,8.90
2023-04-15T02:06:21.194Z,8.90
2023-04-15T02:08:53.763Z,9.00
2023-04-15T02:11:26.506Z,9.10
2023-04-15T02:13:58.963Z,9.10
2023-04-15T02:16:33.701Z,9.20
2023-04-15T02:19:06.314Z,9.30
2023-04-15T02:21:39.894Z,9.40
2023-04-15T02:24:12.544Z,9.40
2023-04-15T02:26:46.702Z,9.60
2023-04-15T02:29:19.229Z,9.60
2023-04-15T02:31:52.175Z,9.70
2023-04-15T02:34:24.756Z,9.70
2023-04-15T02:36:57.907Z,9.90
2023-04-15T02:39:30.452Z,9.90
2023-04-15T02:42:05.063Z,10.00
2023-04-15T02:44:37.798Z,10.00
2023-04-15T02:47:11.762Z,10.10
2023-04-15T02:49:44.309Z,10.10
2023-04-15T02:52:17.060Z,10.10
2023-04-15T02:54:49.584Z,10.10
2023-04-15T02:57:22.303Z,10.20
2023-04-15T02:59:54.955Z,10.20
2023-04-15T03:02:27.852Z,10.30
2023-04-15T03:05:00.778Z,10.30
2023-04-15T03:07:33.698Z,10.30
2023-04-15T03:10:07.299Z,10.30
2023-04-15T03:12:40.795Z,10.30
2023-04-15T03:15:13.306Z,10.40
2023-04-15T03:17:46.394Z,10.40
2023-04-15T03:20:19.087Z,10.40
2023-04-15T03:22:51.905Z,10.40
2023-04-15T03:25:24.430Z,10.40
2023-04-15T03:27:57.450Z,10.40
2023-04-15T03:30:29.984Z,10.40
2023-04-15T03:33:02.861Z,10.50
2023-04-15T03:35:35.592Z,10.40
2023-04-15T03:38:08.585Z,10.50
2023-04-15T03:40:42.251Z,10.50
2023-04-15T03:43:15.136Z,10.50
2023-04-15T03:45:47.672Z,10.50
2023-04-15T03:48:20.598Z,10.50
2023-04-15T03:50:53.180Z,10.60
2023-04-15T03:53:26.209Z,10.60
2023-04-15T03:55:58.696Z,10.60
2023-04-15T03:58:31.572Z,10.60
2023-04-15T04:01:04.097Z,10.60
2023-04-15T04:03:37.964Z,10.60
2023-04-15T04:06:12.516Z,10.70
2023-04-15T04:08:45.410Z,10.60
2023-04-15T04:11:17.884Z,10.70
2023-04-15T04:13:50.680Z,10.70
2023-04-15T04:16:23.484Z,10.70
2023-04-15T04:18:56.452Z,10.70
2023-04-15T04:21:28.924Z,10.70
2023-04-15T04:24:01.800Z,10.80
2023-04-15T04:26:34.328Z,10.70
2023-04-15T04:29:07.250Z,10.70
2023-04-15T04:31:39.992Z,10.80
2023-04-15T04:34:13.038Z,10.70
2023-04-15T04:36:45.642Z,10.80
2023-04-15T04:39:18.401Z,10.80
2023-04-15T04:41:52.511Z,10.80
2023-04-15T04:44:25.329Z,10.80
2023-04-15T04:46:57.889Z,10.80
2023-04-15T04:49:30.629Z,10.80
2023-04-15T04:52:03.149Z,10.80
2023-04-15T04:54:36.354Z,10.80
2023-04-15T04:57:08.839Z,10.80
2023-04-15T04:59:41.928Z,10.80
2023-04-15T05:02:14.455Z,10.80
2023-04-15T05:04:47.412Z,10.80
2023-04-15T05:07:21.069Z,10.80
2023-04-15T05:09:53.853Z,10.70
2023-04-15T05:12:26.734Z,10.80
2023-04-15T05:14:59.760Z,10.70
2023-04-15T05:17:33.379Z,10.70
2023-04-15T05:20:07.523Z,10.70
2023-04-15T05:22:40.031Z,10.70
2023-04-15T05:25:12.887Z,10.60
2023-04-15T05:27:45.493Z,10.50
2023-04-15T05:30:20.424Z,10.50
2023-04-15T05:32:52.931Z,10.40
2023-04-15T05:35:25.816Z,10.40
2023-04-15T05:37:58.338Z,10.40
2023-04-15T05:40:31.477Z,10.40
2023-04-15T05:43:04.628Z,10.40
2023-04-15T05:45:37.373Z,10.40
2023-04-15T05:48:09.815Z,10.40
2023-04-15T05:50:43.069Z,10.30
2023-04-15T05:53:15.737Z,10.40
2023-04-15T05:55:48.545Z,10.30
2023-04-15T05:58:21.223Z,10.30
2023-04-15T06:00:53.990Z,10.30
2023-04-15T06:03:26.556Z,10.30
2023-04-15T06:05:59.443Z,10.40
2023-04-15T06:08:31.942Z,10.40
2023-04-15T06:11:04.794Z,10.40
2023-04-15T06:13:37.302Z,10.50
2023-04-15T06:16:10.111Z,10.50
2023-04-15T06:18:42.678Z,10.50
2023-04-15T06:21:15.997Z,10.60
2023-04-15T06:23:48.568Z,10.60
2023-04-15T06:26:21.615Z,10.60
2023-04-15T06:28:54.325Z,10.60
2023-04-15T06:31:27.476Z,10.60
2023-04-15T06:33:59.981Z,10.60
2023-04-15T06:36:32.927Z,10.70
2023-04-15T06:39:08.770Z,10.70
2023-04-15T06:41:41.638Z,10.70
2023-04-15T06:44:14.214Z,10.70
2023-04-15T06:46:47.073Z,10.70
2023-04-15T06:49:19.605Z,10.80
2023-04-15T06:51:55.724Z,10.80
2023-04-15T06:54:30.047Z,10.80
2023-04-15T06:57:02.972Z,10.80
2023-04-15T06:59:43.492Z,10.80
2023-04-15T07:02:26.155Z,10.80
2023-04-15T07:04:58.922Z,10.90
2023-04-15T07:07:31.847Z,10.80
2023-04-15T07:10:05.482Z,10.90
2023-04-15T07:12:39.730Z,10.90
2023-04-15T07:15:20.222Z,10.90
2023-04-15T07:18:01.973Z,10.90
2023-04-15T07:20:55.172Z,10.90
2023-04-15T07:23:28.395Z,10.90
2023-04-15T07:26:01.643Z,11.00
2023-04-15T07:28:34.497Z,11.00
2023-04-15T07:31:06.989Z,11.00
2023-04-15T07:33:40.134Z,11.10
2023-04-15T07:36:13.299Z,11.10
2023-04-15T07:38:46.069Z,11.20
2023-04-15T07:41:18.676Z,11.10
2023-04-15T07:43:51.901Z,11.20
2023-04-15T07:46:27.889Z,11.20
2023-04-15T07:49:01.069Z,11.30
2023-04-15T07:51:33.826Z,11.30
2023-04-15T07:54:07.479Z,11.30
2023-04-15T07:56:39.942Z,11.30
2023-04-15T07:59:13.125Z,11.30
2023-04-15T08:01:45.692Z,11.40
2023-04-15T08:04:18.676Z,11.40
2023-04-15T08:06:52.504Z,11.40
2023-04-15T08:09:27.057Z,11.50
2023-04-15T08:11:59.586Z,11.60
2023-04-15T08:14:32.485Z,11.60
2023-04-15T08:17:05.642Z,11.70
2023-04-15T08:19:38.431Z,11.70
2023-04-15T08:22:15.618Z,11.80
2023-04-15T08:24:51.614Z,11.80
2023-04-15T08:27:24.116Z,11.70
2023-04-15T08:30:00.463Z,11.80
2023-04-15T08:32:34.381Z,11.80
2023-04-15T08:35:30.877Z,11.90
2023-04-15T08:38:04.622Z,11.90
2023-04-15T08:40:45.699Z,11.90
2023-04-15T08:43:28.723Z,11.90
2023-04-15T08:46:04.489Z,11.90
2023-04-15T08:48:43.188Z,11.90
2023-04-15T08:51:20.455Z,11.90
2023-04-15T08:53:53.488Z,12.00
2023-04-15T08:56:29.421Z,12.00
2023-04-15T08:59:05.589Z,12.10
2023-04-15T09:01:38.872Z,12.20
2023-04-15T09:04:12.644Z,12.30
2023-04-15T09:06:45.776Z,12.30
2023-04-15T09:09:18.342Z,12.30
2023-04-15T09:11:51.664Z,12.30
2023-04-15T09:14:24.228Z,12.30
2023-04-15T09:17:02.094Z,12.30
2023-04-15T09:19:34.779Z,12.40
2023-04-15T09:22:07.661Z,12.40
2023-04-15T09:24:42.350Z,12.40
2023-04-15T09:27:17.972Z,12.40
2023-04-15T09:29:51.816Z,12.40
2023-04-15T09:32:25.011Z,12.50
2023-04-15T09:34:57.588Z,12.40
2023-04-15T09:37:38.071Z,12.30
2023-04-15T09:40:10.731Z,12.30
2023-04-15T09:42:57.015Z,12.30
2023-04-15T09:45:29.969Z,12.30
2023-04-15T09:48:24.647Z,12.30
2023-04-15T09:51:01.506Z,12.30
2023-04-15T09:53:36.725Z,12.20
2023-04-15T09:56:10.613Z,12.20
2023-04-15T09:58:47.159Z,12.20
2023-04-15T10:01:27.429Z,12.10
2023-04-15T10:04:04.002Z,12.00
2023-04-15T10:06:37.087Z,11.90
2023-04-15T10:09:10.053Z,11.90
2023-04-15T10:11:43.215Z,11.90
2023-04-15T10:14:19.511Z,11.90
2023-04-15T10:17:03.239Z,12.00
2023-04-15T10:19:38.237Z,12.10
2023-04-15T10:22:11.090Z,12.10
2023-04-15T10:24:47.344Z,12.20
2023-04-15T10:27:21.165Z,12.10
2023-04-15T10:29:55.156Z,12.10
2023-04-15T10:32:27.793Z,12.10
2023-04-15T10:35:06.907Z,12.20
2023-04-15T10:37:39.466Z,12.20
2023-04-15T10:40:33.664Z,12.20
2023-04-15T10:43:08.462Z,12.20
2023-04-15T10:45:46.179Z,12.10
2023-04-15T10:48:21.856Z,12.10
2023-04-15T10:51:00.644Z,12.00
2023-04-15T10:53:33.271Z,12.00
2023-04-15T10:56:06.470Z,12.00
2023-04-15T10:58:45.545Z,12.00
2023-04-15T11:01:24.839Z,12.00
2023-04-15T11:04:03.593Z,12.00
2023-04-15T11:06:45.928Z,12.10
2023-04-15T11:09:33.376Z,12.10
2023-04-15T11:12:12.372Z,12.10
2023-04-15T11:14:50.483Z,12.20
2023-04-15T11:17:29.755Z,12.20
2023-04-15T11:20:04.903Z,12.30
2023-04-15T11:22:47.466Z,12.30
2023-04-15T11:25:27.189Z,12.20
2023-04-15T11:28:02.037Z,12.20
2023-04-15T11:30:37.543Z,12.20
2023-04-15T11:33:12.550Z,12.20
2023-04-15T11:35:45.215Z,12.10
2023-04-15T11:38:21.449Z,12.10
2023-04-15T11:40:53.968Z,12.20
2023-04-15T11:43:26.961Z,12.20
2023-04-15T11:46:01.393Z,12.20
2023-04-15T11:48:37.360Z,12.20
2023-04-15T11:51:18.721Z,12.20
2023-04-15T11:53:52.169Z,12.20
2023-04-15T11:56:27.373Z,12.20
2023-04-15T11:59:00.490Z,12.10
2023-04-15T12:01:36.925Z,12.10
2023-04-15T12:04:27.882Z,12.10
2023-04-15T12:07:06.632Z,12.00
2023-04-15T12:09:40.264Z,11.90
2023-04-15T12:12:12.815Z,11.90
2023-04-15T12:14:45.626Z,11.90
2023-04-15T12:17:18.197Z,12.00
2023-04-15T12:19:59.413Z,12.10
2023-04-15T12:22:38.100Z,12.50
2023-04-15T12:25:10.988Z,12.70
2023-04-15T12:27:52.053Z,12.90
2023-04-15T12:30:26.800Z,12.90
2023-04-15T12:33:03.483Z,12.90
2023-04-15T12:35:37.111Z,12.90
2023-04-15T12:38:10.912Z,12.90
2023-04-15T12:40:43.707Z,12.90
2023-04-15T12:43:16.217Z,12.80
2023-04-15T12:45:51.037Z,12.80
2023-04-15T12:48:23.637Z,12.70
2023-04-15T12:50:56.497Z,12.70
2023-04-15T12:53:31.658Z,12.70
2023-04-15T12:56:07.173Z,12.60
2023-04-15T12:58:39.881Z,12.60
2023-04-15T13:01:13.418Z,12.50
2023-04-15T13:03:46.088Z,12.50
2023-04-15T13:06:18.984Z,12.40
2023-04-15T13:08:58.369Z,12.40
2023-04-15T13:11:33.641Z,12.40
2023-04-15T13:14:08.479Z,12.40
2023-04-15T13:16:41.553Z,12.40
2023-04-15T13:19:14.382Z,12.40
2023-04-15T13:21:47.532Z,12.40
2023-04-15T13:24:20.039Z,12.40
2023-04-15T13:26:53.834Z,12.30
2023-04-15T13:29:26.600Z,12.30
2023-04-15T13:32:01.572Z,12.30
2023-04-15T13:34:34.171Z,12.10
2023-04-15T13:37:10.027Z,12.00
2023-04-15T13:39:42.571Z,11.90
2023-04-15T13:42:15.426Z,12.00
2023-04-15T13:44:47.992Z,12.00
2023-04-15T13:47:21.517Z,11.90
2023-04-15T13:49:56.318Z,11.90
2023-04-15T13:52:29.065Z,11.90
2023-04-15T13:55:07.288Z,11.90
2023-04-15T13:57:52.693Z,11.90
2023-04-15T14:00:25.201Z,12.00
2023-04-15T14:02:58.160Z,12.00
2023-04-15T14:05:31.245Z,12.10
2023-04-15T14:08:04.031Z,12.10
2023-04-15T14:10:36.556Z,12.20
2023-04-15T14:13:09.384Z,12.20
2023-04-15T14:15:42.097Z,12.20
2023-04-15T14:18:14.909Z,12.30
2023-04-15T14:20:47.422Z,12.40
2023-04-15T14:23:30.353Z,12.30
2023-04-15T14:26:02.905Z,12.30
2023-04-15T14:28:35.731Z,12.40
2023-04-15T14:31:08.352Z,12.30
2023-04-15T14:33:41.310Z,12.30
2023-04-15T14:36:13.894Z,12.30
2023-04-15T14:38:48.412Z,12.20
2023-04-15T14:41:22.431Z,12.30
2023-04-15T14:43:55.288Z,12.30
2023-04-15T14:46:27.915Z,12.30
2023-04-15T14:49:00.808Z,12.30
2023-04-15T14:51:33.841Z,12.30
2023-04-15T14:54:06.663Z,12.40
2023-04-15T14:56:39.167Z,12.50
2023-04-15T14:59:12.155Z,12.60
2023-04-15T15:01:44.962Z,12.90
2023-04-15T15:04:18.116Z,13.10
2023-04-15T15:06:50.876Z,13.20
2023-04-15T15:09:23.915Z,13.30
2023-04-15T15:11:57.365Z,13.20
2023-04-15T15:14:30.783Z,13.10
2023-04-15T15:17:03.344Z,13.00
2023-04-15T15:19:36.230Z,12.80
2023-04-15T15:22:08.900Z,12.60
2023-04-15T15:24:41.747Z,12.40
2023-04-15T15:27:14.315Z,12.30
2023-04-15T15:29:47.230Z,12.20
2023-04-15T15:32:19.736Z,12.10
2023-04-15T15:34:53.389Z,12.10
2023-04-15T15:37:26.072Z,11.90
2023-04-15T15:39:59.212Z,11.90
2023-04-15T15:42:32.378Z,11.90
2023-04-15T15:45:06.114Z,11.80
2023-04-15T15:47:38.768Z,11.80
2023-04-15T15:50:13.836Z,11.80
2023-04-15T15:52:46.474Z,11.70
2023-04-15T15:55:19.444Z,11.70
2023-04-15T15:57:52.023Z,11.70
2023-04-15T16:00:24.831Z,11.60
2023-04-15T16:05:33.859Z,11.60
2023-04-15T16:08:06.561Z,11.60
2023-04-15T16:10:39.486Z,11.60
2023-04-15T16:13:12.055Z,11.60
2023-04-15T16:15:44.910Z,11.60
2023-04-15T16:18:17.999Z,11.50
2023-04-15T16:20:50.982Z,11.50
2023-04-15T16:23:24.104Z,11.50
2023-04-15T16:25:57.742Z,11.50
2023-04-15T16:28:30.221Z,11.50
2023-04-15T16:31:03.192Z,11.50
2023-04-15T16:33:35.978Z,11.40
2023-04-15T16:36:08.797Z,11.30
2023-04-15T16:38:41.324Z,11.30
2023-04-15T16:41:14.839Z,11.20
2023-04-15T16:43:47.378Z,11.10
2023-04-15T16:46:20.345Z,11.10
2023-04-15T16:48:52.992Z,11.00
2023-04-15T16:51:26.630Z,10.90
2023-04-15T16:53:59.143Z,10.90
2023-04-15T16:56:31.899Z,10.90
2023-04-15T16:59:04.592Z,10.80
2023-04-15T17:01:37.832Z,10.80
2023-04-15T17:04:10.521Z,10.80
2023-04-15T17:06:43.380Z,10.80
2023-04-15T17:09:15.910Z,10.80
2023-04-15T17:11:48.956Z,10.80
2023-04-15T17:14:21.518Z,10.80
2023-04-15T17:16:54.377Z,10.80
2023-04-15T17:19:30.032Z,10.70
2023-04-15T17:22:02.880Z,10.80
2023-04-15T17:24:35.946Z,10.80
2023-04-15T17:27:08.709Z,10.80
2023-04-15T17:29:41.360Z,10.80
2023-04-15T17:32:14.135Z,10.80
2023-04-15T17:34:50.297Z,10.80
2023-04-15T17:37:23.898Z,10.80
2023-04-15T17:39:56.426Z,10.80
2023-04-15T17:42:29.230Z,10.70
2023-04-15T17:45:01.755Z,10.80
2023-04-15T17:47:34.626Z,10.70
2023-04-15T17:50:08.223Z,10.70
2023-04-15T17:52:41.542Z,10.70
2023-04-15T17:55:14.138Z,10.70
2023-04-15T17:57:49.684Z,10.70
2023-04-15T18:00:22.168Z,10.60
2023-04-15T18:02:55.365Z,10.60
2023-04-15T18:05:30.764Z,10.60
2023-04-15T18:08:03.636Z,10.60
2023-04-15T18:10:36.793Z,10.60
2023-04-15T18:13:09.545Z,10.50
2023-04-15T18:15:42.160Z,10.50
2023-04-15T18:18:14.950Z,10.50
2023-04-15T18:20:47.461Z,10.50
2023-04-15T18:23:23.252Z,10.50
2023-04-15T18:25:58.117Z,10.50
2023-04-15T18:28:31.521Z,10.50
2023-04-15T18:31:04.222Z,10.50
2023-04-15T18:33:37.580Z,10.50
2023-04-15T18:36:10.527Z,10.50
2023-04-15T18:38:45.805Z,10.40
2023-04-15T18:41:18.367Z,10.50
2023-04-15T18:43:51.416Z,10.40
2023-04-15T18:46:24.010Z,10.50
2023-04-15T18:48:56.887Z,10.40
2023-04-15T18:51:29.433Z,10.40
2023-04-15T18:54:02.280Z,10.40
2023-04-15T18:56:35.333Z,10.40
2023-04-15T18:59:28.258Z,10.30
2023-04-15T19:02:03.604Z,10.40
2023-04-15T19:04:36.608Z,10.30
2023-04-15T19:07:09.839Z,10.30
2023-04-15T19:09:42.696Z,10.30
2023-04-15T19:12:15.423Z,10.30
2023-04-15T19:14:48.483Z,10.30
2023-04-15T19:17:21.367Z,10.30
2023-04-15T19:19:54.441Z,10.20
2023-04-15T19:22:27.118Z,10.20
2023-04-15T19:25:02.530Z,10.20
2023-04-15T19:27:35.139Z,10.10
2023-04-15T19:30:09.008Z,10.10
2023-04-15T19:32:43.407Z,10.10
2023-04-15T19:35:16.500Z,10.10
2023-04-15T19:37:51.868Z,10.10
2023-04-15T19:40:24.899Z,10.20
2023-04-15T19:42:57.427Z,10.10
2023-04-15T19:45:32.021Z,10.10
2023-04-15T19:48:06.268Z,10.10
2023-04-15T19:50:39.927Z,10.10
2023-04-15T19:53:12.524Z,10.10
2023-04-15T19:55:45.822Z,10.10
2023-04-15T19:58:21.483Z,10.10
2023-04-15T20:00:54.820Z,10.10
2023-04-15T20:03:27.758Z,10.20
2023-04-15T20:06:01.069Z,10.20
2023-04-15T20:08:35.452Z,10.10
2023-04-15T20:11:09.893Z,10.10
2023-04-15T20:13:42.708Z,10.10
2023-04-15T20:16:16.284Z,10.10
2023-04-15T20:18:51.644Z,10.10
2023-04-15T20:21:25.853Z,10.10
2023-04-15T20:23:58.664Z,10.10
2023-04-15T20:26:31.700Z,10.10
2023-04-15T20:29:05.252Z,10.10
2023-04-15T20:31:38.711Z,10.00
2023-04-15T20:34:12.217Z,10.00
2023-04-15T20:36:45.360Z,10.10
2023-04-15T20:39:20.917Z,10.10
2023-04-15T20:41:53.978Z,10.10
2023-04-15T20:44:26.786Z,10.10
2023-04-15T20:47:00.071Z,10.00
2023-04-15T20:49:36.327Z,10.00
2023-04-15T20:52:10.173Z,10.00
2023-04-15T20:54:43.010Z,10.00
2023-04-15T20:57:17.017Z,10.00
2023-04-15T20:59:50.170Z,10.00
2023-04-15T21:02:27.353Z,10.00
2023-04-15T21:05:00.050Z,9.90
2023-04-15T21:07:33.328Z,9.90
2023-04-15T21:10:06.700Z,9.90
2023-04-15T21:12:42.662Z,9.90
2023-04-15T21:15:15.578Z,9.90
2023-04-15T21:17:51.047Z,9.90
2023-04-15T21:20:27.260Z,9.90
2023-04-15T21:23:00.948Z,9.90
2023-04-15T21:25:34.055Z,9.80
2023-04-15T21:28:07.246Z,9.80
2023-04-15T21:30:40.566Z,9.90
2023-04-15T21:33:13.970Z,9.90
2023-04-15T21:35:48.268Z,9.90
2023-04-15T21:38:23.276Z,9.90
2023-04-15T21:40:56.788Z,9.90
2023-04-15T21:43:30.399Z,9.90
2023-04-15T21:46:23.204Z,9.90
2023-04-15T21:48:56.448Z,9.90
2023-04-15T21:51:29.305Z,9.90
2023-04-15T21:54:02.637Z,9.90
2023-04-15T21:56:35.567Z,9.80
2023-04-15T21:59:09.102Z,9.90
2023-04-15T22:01:42.000Z,9.80
2023-04-15T22:04:15.410Z,9.80
2023-04-15T22:06:48.487Z,9.90
2023-04-15T22:09:21.693Z,9.80
2023-04-15T22:11:54.446Z,9.90
2023-04-15T22:14:28.490Z,9.90
2023-04-15T22:17:01.229Z,9.90
2023-04-15T22:19:34.249Z,9.90
2023-04-15T22:22:07.125Z,9.90
2023-04-15T22:24:41.017Z,9.90
2023-04-15T22:27:13.978Z,9.80
2023-04-15T22:29:47.001Z,9.80
2023-04-15T22:32:19.698Z,9.90
2023-04-15T22:34:53.150Z,9.80
2023-04-15T22:37:26.374Z,9.80
2023-04-15T22:40:01.879Z,9.80
2023-04-15T22:42:34.687Z,9.90
2023-04-15T22:45:08.311Z,9.80
2023-04-15T22:47:41.309Z,9.80
2023-04-15T22:50:14.597Z,9.90
2023-04-15T22:52:48.374Z,9.90
2023-04-15T22:55:21.590Z,9.90
2023-04-15T22:57:54.570Z,9.80
2023-04-15T23:00:28.280Z,9.80
2023-04-15T23:03:01.454Z,9.80
2023-04-15T23:05:35.089Z,9.80
2023-04-15T23:08:08.350Z,9.80
2023-04-15T23:10:41.821Z,9.80
2023-04-15T23:13:14.485Z,9.80
2023-04-15T23:15:47.630Z,9.80
2023-04-15T23:18:20.510Z,9.70
2023-04-15T23:20:53.579Z,9.70
2023-04-15T23:23:26.455Z,9.80
2023-04-15T23:25:59.804Z,9.80
2023-04-15T23:28:32.599Z,9.70
2023-04-15T23:31:06.988Z,9.70
2023-04-15T23:33:39.817Z,9.70
2023-04-15T23:36:12.802Z,9.70
2023-04-15T23:38:45.651Z,9.70
2023-04-15T23:41:18.844Z,9.70
2023-04-15T23:43:51.499Z,9.60
2023-04-15T23:46:24.951Z,9.70
2023-04-15T23:48:57.779Z,9.70
2023-04-15T23:51:30.916Z,9.70
2023-04-15T23:54:03.678Z,9.70
2023-04-15T23:56:37.059Z,9.70
2023-04-15T23:59:09.899Z,9.70
